Time;durP1;ratioP1;P1;durP2;ratioP2;P2;SDS_P1;SDS_P2;PMS_P1;PMS_P2;Temp;Humidity;BMP_temperature;BMP_pressure;BME280_temperature;BME280_humidity;BME280_pressure;Samples;Min_cycle;Max_cycle;Signal;HPM_P1;HPM_P2
2022/08/03 00:01:28;;;;;;;4.78;3.80;;;21.00;99.90;;;;;;5060459;28;20442;-77
2022/08/03 00:03:54;;;;;;;4.67;3.90;;;20.90;99.90;;;;;;5093854;28;20099;-77
2022/08/03 00:06:20;;;;;;;4.05;3.45;;;20.90;99.90;;;;;;5077624;28;20471;-77
2022/08/03 00:08:45;;;;;;;5.40;3.50;;;20.90;99.90;;;;;;5095618;28;20495;-77
2022/08/03 00:11:11;;;;;;;5.23;4.17;;;20.90;99.90;;;;;;5079074;28;20028;-77
2022/08/03 00:13:37;;;;;;;5.10;4.57;;;20.80;99.90;;;;;;5095134;28;20056;-77
2022/08/03 00:16:03;;;;;;;5.10;3.87;;;20.80;99.90;;;;;;5076916;28;20032;-77
2022/08/03 00:18:29;;;;;;;5.97;4.40;;;20.80;99.90;;;;;;5093844;28;20055;-77
2022/08/03 00:20:54;;;;;;;5.27;3.87;;;20.80;99.90;;;;;;5091426;28;20072;-77
2022/08/03 00:23:20;;;;;;;6.33;4.30;;;20.70;99.90;;;;;;5074177;28;20032;-77
2022/08/03 00:25:46;;;;;;;6.83;3.90;;;20.70;99.90;;;;;;5085204;28;20024;-77
2022/08/03 00:28:12;;;;;;;4.23;3.83;;;20.70;99.90;;;;;;5094566;28;20097;-77
2022/08/03 00:30:37;;;;;;;5.57;3.63;;;20.60;99.90;;;;;;5093261;28;20107;-77
2022/08/03 00:33:03;;;;;;;4.83;4.10;;;20.60;99.90;;;;;;5094454;28;20112;-78
2022/08/03 00:35:29;;;;;;;7.00;4.15;;;20.60;99.90;;;;;;5093203;28;20027;-77
2022/08/03 00:37:55;;;;;;;4.57;3.53;;;20.50;99.90;;;;;;5093348;28;20032;-77
2022/08/03 00:40:21;;;;;;;6.57;4.03;;;20.50;99.90;;;;;;5076782;28;20039;-78
2022/08/03 00:43:06;;;;;;;10.10;4.60;;;20.40;99.90;;;;;;5076326;28;20289;-77
2022/08/03 00:45:40;;;;;;;7.65;4.40;;;20.40;99.90;;;;;;5078070;28;20482;-79
2022/08/03 00:48:07;;;;;;;6.78;4.47;;;20.40;99.90;;;;;;5078083;28;20054;-78
2022/08/03 00:50:35;;;;;;;6.10;3.88;;;20.40;99.90;;;;;;5060401;28;20063;-78
2022/08/03 00:53:02;;;;;;;4.60;4.20;;;20.40;99.90;;;;;;5074217;28;20028;-78
2022/08/03 00:55:28;;;;;;;5.57;4.10;;;20.30;99.90;;;;;;5086980;28;20110;-78
2022/08/03 00:57:54;;;;;;;7.13;3.63;;;20.20;99.90;;;;;;5096212;28;20030;-78
2022/08/03 01:00:22;;;;;;;6.53;4.30;;;20.20;99.90;;;;;;5079062;28;20047;-78
2022/08/03 01:02:48;;;;;;;4.90;3.78;;;20.20;99.90;;;;;;5079397;28;20302;-78
2022/08/03 01:05:14;;;;;;;4.53;4.10;;;20.20;99.90;;;;;;5095833;28;20028;-78
2022/08/03 01:08:15;;;;;;;4.60;4.20;;;20.10;99.90;;;;;;5096459;28;20028;-78
2022/08/03 01:10:52;;;;;;;6.38;4.00;;;20.10;99.90;;;;;;5091975;28;20934;-78
2022/08/03 01:13:33;;;;;;;5.82;3.90;;;20.00;99.90;;;;;;5078242;28;20114;-78
2022/08/03 01:16:21;;;;;;;5.03;3.50;;;20.00;99.90;;;;;;5093458;28;20040;-77
2022/08/03 01:18:49;;;;;;;;;;;20.00;99.90;;;;;;5079195;28;20028;-77
2022/08/03 01:22:04;;;;;;;4.80;4.22;;;19.90;99.90;;;;;;5093900;28;19918;-77
2022/08/03 01:25:07;;;;;;;4.72;4.00;;;19.90;99.90;;;;;;5075706;28;20047;-77
2022/08/03 01:28:10;;;;;;;8.82;4.40;;;19.90;99.90;;;;;;5093960;28;20113;-78
2022/08/03 01:30:35;;;;;;;5.95;4.13;;;19.90;99.90;;;;;;5093772;28;20030;-77
2022/08/03 01:33:04;;;;;;;4.80;3.93;;;19.80;99.90;;;;;;5075068;28;20024;-77
2022/08/03 01:35:45;;;;;;;7.75;4.55;;;19.80;99.90;;;;;;5076120;28;20020;-77
2022/08/03 01:38:16;;;;;;;5.50;4.35;;;19.80;99.90;;;;;;5091975;22;20456;-75
2022/08/03 01:40:43;;;;;;;4.30;3.70;;;19.80;99.90;;;;;;5034199;28;20091;-72
2022/08/03 01:43:13;;;;;;;11.02;4.63;;;19.80;99.90;;;;;;5046090;28;20036;-72
2022/08/03 01:45:39;;;;;;;4.82;4.07;;;19.80;99.90;;;;;;5030975;28;20029;-72
2022/08/03 01:48:05;;;;;;;5.73;4.47;;;19.70;99.90;;;;;;5031151;28;20508;-72
2022/08/03 01:50:31;;;;;;;4.57;4.05;;;19.60;99.90;;;;;;5047484;28;20036;-73
2022/08/03 01:52:57;;;;;;;5.53;4.28;;;19.60;99.90;;;;;;5038557;28;20499;-72
2022/08/03 01:55:24;;;;;;;5.63;5.00;;;19.60;99.90;;;;;;5047351;28;20104;-72
2022/08/03 01:57:49;;;;;;;;;;;19.50;99.90;;;;;;5051215;28;20136;-72
2022/08/03 02:00:15;;;;;;;4.90;3.95;;;19.50;99.90;;;;;;5050645;28;19940;-72
2022/08/03 02:02:42;;;;;;;6.13;4.57;;;19.40;99.90;;;;;;5033125;28;20028;-72
2022/08/03 02:05:09;;;;;;;5.10;4.10;;;19.40;99.90;;;;;;5041747;28;20041;-73
2022/08/03 02:07:35;;;;;;;5.53;4.65;;;19.30;99.90;;;;;;5030310;28;20041;-73
2022/08/03 02:10:02;;;;;;;4.87;4.40;;;19.30;99.90;;;;;;5030730;28;20025;-72
2022/08/03 02:12:28;;;;;;;7.00;4.47;;;19.20;99.90;;;;;;5030693;28;20512;-73
2022/08/03 02:14:55;;;;;;;4.75;4.05;;;19.20;99.90;;;;;;5047002;28;20098;-73
2022/08/03 02:17:21;;;;;;;4.82;3.90;;;19.20;99.90;;;;;;5030303;28;20056;-73
2022/08/03 02:19:46;;;;;;;5.27;4.77;;;19.20;99.90;;;;;;5030628;28;20481;-73
2022/08/03 02:22:12;;;;;;;5.70;5.00;;;19.10;99.90;;;;;;5043119;28;20026;-73
2022/08/03 02:24:38;;;;;;;4.60;3.90;;;19.10;99.90;;;;;;5049330;28;20029;-73
2022/08/03 02:27:09;;;;;;;5.70;5.00;;;19.10;99.90;;;;;;5050392;28;20035;-73
2022/08/03 02:29:35;;;;;;;7.13;4.50;;;19.00;99.90;;;;;;5050441;28;20079;-73
2022/08/03 02:32:03;;;;;;;6.30;4.28;;;19.00;99.90;;;;;;5050441;28;20025;-73
2022/08/03 02:34:28;;;;;;;5.18;3.92;;;19.00;99.90;;;;;;5033235;28;20037;-73
2022/08/03 02:36:54;;;;;;;5.27;3.90;;;18.90;99.90;;;;;;5050353;28;20594;-73
2022/08/03 02:39:21;;;;;;;4.53;4.00;;;18.90;99.90;;;;;;5050158;28;20036;-73
2022/08/03 02:41:57;;;;;;;7.78;4.82;;;18.90;99.90;;;;;;5049588;28;20041;-73
2022/08/03 02:44:24;;;;;;;11.15;5.43;;;18.90;99.90;;;;;;5049890;28;20029;-73
2022/08/03 02:46:54;;;;;;;5.75;4.45;;;18.80;99.90;;;;;;5050195;28;20111;-73
2022/08/03 02:49:20;;;;;;;5.97;4.55;;;18.80;99.90;;;;;;5049723;28;20057;-73
2022/08/03 02:51:46;;;;;;;4.77;4.23;;;18.80;99.90;;;;;;5051302;28;20057;-73
2022/08/03 02:54:11;;;;;;;6.77;5.10;;;18.80;99.90;;;;;;5016641;28;20039;-73
2022/08/03 02:56:37;;;;;;;5.33;4.30;;;18.80;99.90;;;;;;5049008;28;20528;-73
2022/08/03 02:59:03;;;;;;;5.70;4.60;;;18.70;99.90;;;;;;5041661;28;20037;-73
2022/08/03 03:01:29;;;;;;;6.23;4.73;;;18.70;99.90;;;;;;5049961;28;20036;-73
2022/08/03 03:03:56;;;;;;;6.00;4.40;;;18.60;99.90;;;;;;5031966;28;20051;-73
2022/08/03 03:06:23;;;;;;;6.70;4.68;;;18.60;99.90;;;;;;5049767;28;20029;-74
2022/08/03 03:08:48;;;;;;;4.22;3.83;;;18.60;99.90;;;;;;5049822;28;20029;-74
2022/08/03 03:11:15;;;;;;;5.77;4.70;;;18.60;99.90;;;;;;5049890;28;20032;-74
2022/08/03 03:13:44;;;;;;;5.28;4.22;;;18.60;99.90;;;;;;5049576;28;20052;-74
2022/08/03 03:16:12;;;;;;;7.00;4.53;;;18.60;99.90;;;;;;5033274;28;20036;-74
2022/08/03 03:18:38;;;;;;;5.07;4.57;;;18.60;99.90;;;;;;5036931;28;20400;-75
2022/08/03 03:21:04;;;;;;;5.60;4.43;;;18.50;99.90;;;;;;5053852;28;20025;-74
2022/08/03 03:23:30;;;;;;;5.93;5.20;;;18.50;99.90;;;;;;5053588;28;20090;-74
2022/08/03 03:25:57;;;;;;;10.70;5.45;;;18.40;99.90;;;;;;5054029;28;20029;-74
2022/08/03 03:28:23;;;;;;;7.15;5.57;;;18.30;99.90;;;;;;5032185;28;20106;-74
2022/08/03 03:30:49;;;;;;;5.82;5.22;;;18.30;99.90;;;;;;5052803;28;20107;-74
2022/08/03 03:33:14;;;;;;;4.93;4.43;;;18.30;99.90;;;;;;5044931;28;20044;-74
2022/08/03 03:35:41;;;;;;;7.63;4.87;;;18.30;99.90;;;;;;5051566;28;20034;-74
2022/08/03 03:38:07;;;;;;;5.25;4.75;;;18.20;99.90;;;;;;5032334;28;20029;-74
2022/08/03 03:40:37;;;;;;;5.30;4.80;;;18.20;99.90;;;;;;5048509;28;20036;-74
2022/08/03 03:43:06;;;;;;;5.00;4.45;;;18.20;99.90;;;;;;5050989;28;20407;-74
2022/08/03 03:45:33;;;;;;;6.45;4.65;;;18.20;99.90;;;;;;5045151;28;20025;-74
2022/08/03 03:48:00;;;;;;;6.07;4.75;;;18.20;99.90;;;;;;5052577;28;20473;-74
2022/08/03 03:50:26;;;;;;;5.22;4.30;;;18.20;99.90;;;;;;5028425;28;20037;-74
2022/08/03 03:52:52;;;;;;;7.70;5.00;;;18.20;99.90;;;;;;5050957;28;20659;-74
2022/08/03 03:55:18;;;;;;;5.33;4.83;;;18.20;99.90;;;;;;5051533;28;20364;-75
2022/08/03 03:57:44;;;;;;;7.33;5.03;;;18.20;99.90;;;;;;5032933;28;20025;-75
2022/08/03 04:00:12;;;;;;;6.15;4.68;;;18.20;99.90;;;;;;5049813;28;20094;-74
2022/08/03 04:02:38;;;;;;;5.68;4.97;;;18.20;99.90;;;;;;5058781;28;20037;-74
2022/08/03 04:11:28;;;;;;;6.82;5.25;;;18.10;99.90;;;;;;5059352;28;20036;-74
2022/08/03 04:14:07;;;;;;;10.07;4.78;;;18.20;99.90;;;;;;5068598;28;20021;-74
2022/08/03 04:16:36;;;;;;;6.45;5.00;;;18.20;99.90;;;;;;5038875;28;20040;-74
2022/08/03 04:19:09;;;;;;;5.55;4.88;;;18.20;99.90;;;;;;5053791;28;20119;-74
2022/08/03 04:21:36;;;;;;;7.13;5.40;;;18.20;99.90;;;;;;5054971;28;20440;-74
2022/08/03 04:24:03;;;;;;;10.98;5.38;;;18.20;99.90;;;;;;5053265;28;20040;-74
2022/08/03 04:26:35;;;;;;;7.32;4.85;;;18.30;99.90;;;;;;5036629;28;20029;-74
2022/08/03 04:29:00;;;;;;;9.57;4.85;;;18.30;99.90;;;;;;5052328;28;20029;-75
2022/08/03 04:31:26;;;;;;;8.30;5.27;;;18.30;99.90;;;;;;5051856;28;20411;-75
2022/08/03 04:33:52;;;;;;;6.30;5.27;;;18.30;99.90;;;;;;5051090;28;20039;-74
2022/08/03 04:36:26;;;;;;;5.63;4.65;;;18.40;99.90;;;;;;5019196;28;20032;-75
2022/08/03 04:38:55;;;;;;;5.97;5.38;;;18.40;99.90;;;;;;5052184;28;20037;-74
2022/08/03 04:41:21;;;;;;;7.47;4.30;;;18.40;99.90;;;;;;5053692;28;20123;-74
2022/08/03 04:43:47;;;;;;;6.72;5.13;;;18.40;99.90;;;;;;5052021;28;20024;-75
2022/08/03 04:46:14;;;;;;;8.10;4.37;;;18.40;99.90;;;;;;5052014;28;20033;-74
2022/08/03 04:48:40;;;;;;;6.32;4.68;;;18.40;99.90;;;;;;5034815;28;20276;-75
2022/08/03 04:51:06;;;;;;;7.10;4.85;;;18.40;99.90;;;;;;5034585;28;20116;-75
2022/08/03 04:53:32;;;;;;;7.57;4.50;;;18.40;99.90;;;;;;5052084;28;20116;-75
2022/08/03 04:56:04;;;;;;;5.97;4.57;;;18.50;99.90;;;;;;5053297;28;20087;-75
2022/08/03 04:58:30;;;;;;;7.13;4.65;;;18.50;99.90;;;;;;5052001;28;20386;-74
2022/08/03 05:00:56;;;;;;;6.93;3.90;;;18.50;99.90;;;;;;5053377;28;20082;-74
2022/08/03 05:03:22;;;;;;;5.53;4.77;;;18.60;99.90;;;;;;5051533;28;20105;-75
2022/08/03 05:05:47;;;;;;;11.38;5.70;;;18.60;99.90;;;;;;5053283;28;20675;-75
2022/08/03 05:08:13;;;;;;;10.67;5.13;;;18.60;99.90;;;;;;5052735;28;20032;-74
2022/08/03 05:10:39;;;;;;;10.07;5.30;;;18.70;99.90;;;;;;5051665;28;20055;-75
2022/08/03 05:13:05;;;;;;;8.40;4.77;;;18.70;99.90;;;;;;5034310;28;20186;-75
2022/08/03 05:15:31;;;;;;;6.20;4.30;;;18.70;99.90;;;;;;5043168;28;20108;-75
2022/08/03 05:17:57;;;;;;;6.80;5.37;;;18.70;99.90;;;;;;5047056;28;20116;-75
2022/08/03 05:20:22;;;;;;;9.52;5.22;;;18.80;99.90;;;;;;5035806;28;20033;-76
2022/08/03 05:22:48;;;;;;;7.67;4.93;;;18.80;99.90;;;;;;5049865;28;20551;-74
2022/08/03 05:25:14;;;;;;;8.70;5.33;;;18.90;99.90;;;;;;5045617;28;20053;-77
2022/08/03 05:27:40;;;;;;;5.37;4.47;;;18.90;99.90;;;;;;5048916;28;20033;-77
2022/08/03 05:30:07;;;;;;;6.17;4.90;;;19.00;99.90;;;;;;5052568;28;20397;-77
2022/08/03 05:32:33;;;;;;;6.03;5.03;;;19.00;99.90;;;;;;5041880;28;20479;-77
2022/08/03 05:34:59;;;;;;;8.63;4.90;;;19.00;99.90;;;;;;5048327;28;20029;-78
2022/08/03 05:37:25;;;;;;;6.78;4.68;;;19.10;99.90;;;;;;5049639;28;20043;-77
2022/08/03 05:39:51;;;;;;;9.47;4.90;;;19.10;99.90;;;;;;5043687;28;20033;-77
2022/08/03 05:42:17;;;;;;;9.47;5.23;;;19.20;99.90;;;;;;5050906;28;20029;-78
2022/08/03 05:44:42;;;;;;;6.80;5.30;;;19.20;99.90;;;;;;5034783;28;20032;-77
2022/08/03 05:47:08;;;;;;;5.07;4.50;;;19.20;99.90;;;;;;5052534;28;20021;-78
2022/08/03 05:49:34;;;;;;;6.07;4.60;;;19.20;99.90;;;;;;5052020;28;20032;-78
2022/08/03 05:52:00;;;;;;;8.57;4.00;;;19.20;99.90;;;;;;5050907;28;20032;-77
2022/08/03 05:54:26;;;;;;;6.10;5.10;;;19.20;99.90;;;;;;5050647;28;20057;-78
2022/08/03 05:56:51;;;;;;;5.43;4.10;;;19.30;99.90;;;;;;5049792;28;20036;-77
2022/08/03 05:59:18;;;;;;;4.90;4.10;;;19.50;99.90;;;;;;5052061;28;20036;-78
2022/08/03 06:01:44;;;;;;;8.23;4.20;;;19.60;99.90;;;;;;5034437;28;20525;-80
2022/08/03 06:04:09;;;;;;;9.30;4.20;;;19.70;99.90;;;;;;5051922;28;20144;-79
2022/08/03 06:06:35;;;;;;;8.67;4.17;;;19.70;99.90;;;;;;5052140;28;20033;-76
2022/08/03 06:09:01;;;;;;;4.87;4.27;;;19.80;99.90;;;;;;5050055;28;20457;-76
2022/08/03 06:11:27;;;;;;;6.37;4.40;;;19.90;99.90;;;;;;5051722;28;20087;-76
2022/08/03 06:13:52;;;;;;;4.47;3.80;;;20.00;99.90;;;;;;5051504;28;20150;-76
2022/08/03 06:16:18;;;;;;;6.87;4.30;;;20.00;99.90;;;;;;5050600;28;20116;-76
2022/08/03 06:18:44;;;;;;;5.90;3.87;;;20.00;99.90;;;;;;5051561;28;20037;-76
2022/08/03 06:21:10;;;;;;;6.28;4.68;;;20.10;99.90;;;;;;5051353;28;20087;-76
2022/08/03 06:23:36;;;;;;;7.00;4.10;;;20.10;99.90;;;;;;5050130;28;20477;-76
2022/08/03 06:26:02;;;;;;;5.67;4.03;;;20.20;99.90;;;;;;5051540;28;20370;-76
2022/08/03 06:28:27;;;;;;;7.80;4.63;;;20.30;99.90;;;;;;5033537;28;20508;-76
2022/08/03 06:30:53;;;;;;;6.20;3.40;;;20.30;99.90;;;;;;5050291;28;20408;-76
2022/08/03 06:33:19;;;;;;;5.40;3.93;;;20.40;99.90;;;;;;5051380;28;20115;-76
2022/08/03 06:35:45;;;;;;;8.70;4.47;;;20.40;99.90;;;;;;5051402;28;20041;-76
2022/08/03 06:38:11;;;;;;;5.67;4.77;;;20.50;99.90;;;;;;5051222;28;20036;-76
2022/08/03 06:40:40;;;;;;;;;;;20.50;99.90;;;;;;5050014;28;20171;-76
2022/08/03 06:43:07;;;;;;;7.13;4.13;;;20.60;99.90;;;;;;5050974;28;19909;-77
2022/08/03 06:45:33;;;;;;;;;;;20.60;99.90;;;;;;5050621;28;20037;-76
2022/08/03 06:48:09;;;;;;;7.63;4.45;;;20.70;99.90;;;;;;5033573;28;19913;-76
2022/08/03 06:50:37;;;;;;;8.27;4.95;;;20.80;99.90;;;;;;5049824;28;20025;-77
2022/08/03 06:53:03;;;;;;;7.07;4.60;;;20.90;99.90;;;;;;5049217;28;20120;-76
2022/08/03 06:55:29;;;;;;;8.45;4.70;;;20.90;99.90;;;;;;5049698;28;20041;-76
2022/08/03 06:57:55;;;;;;;8.02;4.93;;;21.00;99.90;;;;;;5050268;28;20037;-76
2022/08/03 07:00:20;;;;;;;5.00;3.80;;;21.10;99.90;;;;;;5051027;28;20033;-76
2022/08/03 07:02:47;;;;;;;6.53;4.47;;;21.20;99.90;;;;;;5033095;28;20103;-76
2022/08/03 07:05:13;;;;;;;8.93;4.63;;;21.20;99.90;;;;;;5051200;28;20401;-76
2022/08/03 07:07:39;;;;;;;9.90;4.67;;;21.30;99.90;;;;;;5049694;28;20021;-76
2022/08/03 07:10:05;;;;;;;7.32;4.38;;;21.40;99.90;;;;;;5049662;28;20100;-76
2022/08/03 07:12:31;;;;;;;5.30;4.25;;;21.50;99.90;;;;;;5049741;28;20037;-76
2022/08/03 07:14:58;;;;;;;5.50;4.37;;;21.60;99.90;;;;;;5049702;28;20102;-76
2022/08/03 07:17:24;;;;;;;5.82;4.18;;;21.60;99.90;;;;;;5049915;28;20029;-76
2022/08/03 07:19:50;;;;;;;9.63;4.40;;;21.80;99.90;;;;;;5050465;28;20045;-78
2022/08/03 07:22:16;;;;;;;7.40;4.00;;;21.90;99.90;;;;;;5049803;28;20527;-74
2022/08/03 07:24:41;;;;;;;5.23;3.77;;;22.00;99.90;;;;;;5050239;28;20029;-78
2022/08/03 07:27:08;;;;;;;4.93;3.67;;;22.10;99.90;;;;;;5033060;28;20029;-79
2022/08/03 07:29:34;;;;;;;5.47;3.72;;;22.20;99.90;;;;;;5049900;28;20060;-78
2022/08/03 07:32:00;;;;;;;5.38;3.40;;;22.30;99.90;;;;;;5017246;28;20065;-78
2022/08/03 07:34:26;;;;;;;5.68;3.58;;;22.40;99.90;;;;;;5024573;28;20037;-78
2022/08/03 07:36:52;;;;;;;5.97;3.50;;;22.50;99.90;;;;;;5016673;28;20035;-79
2022/08/03 07:39:18;;;;;;;5.20;3.23;;;22.60;99.90;;;;;;5033045;28;20286;-79
2022/08/03 07:41:44;;;;;;;4.50;3.37;;;22.70;99.90;;;;;;5049577;28;20068;-78
2022/08/03 07:44:10;;;;;;;5.35;3.03;;;22.80;99.90;;;;;;5049511;28;20058;-78
2022/08/03 07:46:36;;;;;;;4.53;3.60;;;22.90;99.90;;;;;;5049556;28;20025;-79
2022/08/03 07:49:02;;;;;;;5.50;3.47;;;22.90;99.90;;;;;;5049408;28;20021;-78
2022/08/03 07:51:27;;;;;;;4.43;3.13;;;23.00;99.90;;;;;;5049605;28;20086;-79
2022/08/03 07:53:56;;;;;;;8.03;3.70;;;23.10;99.90;;;;;;5050248;28;20029;-79
2022/08/03 07:56:23;;;;;;;6.55;3.22;;;23.20;99.90;;;;;;5048645;28;20037;-79
2022/08/03 07:58:50;;;;;;;4.28;3.40;;;23.30;99.90;;;;;;5029460;28;20040;-79
2022/08/03 08:01:18;;;;;;;4.30;3.03;;;23.40;99.90;;;;;;5030528;28;20025;-79
2022/08/03 08:03:48;;;;;;;5.28;3.22;;;23.50;99.90;;;;;;5030048;28;20588;-78
2022/08/03 08:06:13;;;;;;;6.32;3.33;;;23.60;99.90;;;;;;5033230;28;20118;-79
2022/08/03 08:08:40;;;;;;;4.35;2.88;;;23.60;99.90;;;;;;5033111;28;20136;-78
2022/08/03 08:11:05;;;;;;;3.75;2.63;;;23.70;99.90;;;;;;5016400;28;20038;-78
2022/08/03 08:13:31;;;;;;;3.00;2.70;;;23.80;99.90;;;;;;5034209;28;20031;-79
2022/08/03 08:15:57;;;;;;;5.60;3.60;;;23.90;99.90;;;;;;5054114;28;20290;-79
2022/08/03 08:18:23;;;;;;;3.33;2.73;;;24.00;99.90;;;;;;5052807;28;20094;-79
2022/08/03 08:20:48;;;;;;;3.80;3.35;;;24.20;99.90;;;;;;5052727;28;20283;-78
2022/08/03 08:23:14;;;;;;;3.30;3.00;;;24.30;99.90;;;;;;5035833;28;20033;-78
2022/08/03 08:25:40;;;;;;;5.38;3.70;;;24.40;99.90;;;;;;5052669;28;20389;-79
2022/08/03 08:28:06;;;;;;;5.05;3.67;;;24.60;99.90;;;;;;5053555;28;20102;-79
2022/08/03 08:30:32;;;;;;;5.57;3.47;;;24.70;99.90;;;;;;5054024;28;20102;-74
2022/08/03 08:32:58;;;;;;;5.45;3.53;;;24.80;99.90;;;;;;5053524;28;20290;-74
2022/08/03 08:35:23;;;;;;;6.03;3.22;;;24.80;99.90;;;;;;5052637;28;20029;-74
2022/08/03 08:37:49;;;;;;;4.28;3.42;;;24.90;99.90;;;;;;5052157;28;20107;-74
2022/08/03 08:40:15;;;;;;;3.75;3.30;;;25.00;99.90;;;;;;5053698;28;20111;-74
2022/08/03 08:42:42;;;;;;;7.47;4.07;;;25.10;99.90;;;;;;5053031;28;20033;-74
2022/08/03 08:45:08;;;;;;;5.43;3.60;;;25.10;99.90;;;;;;5052177;28;20029;-74
2022/08/03 08:47:39;;;;;;;4.65;3.50;;;25.10;99.90;;;;;;5035762;28;20024;-74
2022/08/03 08:50:07;;;;;;;9.90;3.45;;;25.10;99.90;;;;;;5033870;28;20087;-74
2022/08/03 08:52:33;;;;;;;3.90;3.33;;;25.20;99.90;;;;;;5032862;28;20029;-74
2022/08/03 08:55:02;;;;;;;3.50;3.20;;;25.30;99.90;;;;;;5052201;28;20452;-75
2022/08/03 08:57:37;;;;;;;6.80;3.47;;;25.30;99.90;;;;;;5051103;28;20108;-75
2022/08/03 09:00:12;;;;;;;5.88;3.38;;;25.40;99.90;;;;;;5052244;28;20518;-74
2022/08/03 09:02:38;;;;;;;6.78;3.10;;;25.40;99.90;;;;;;5019552;28;20053;-74
2022/08/03 09:05:04;;;;;;;4.18;3.50;;;25.50;99.90;;;;;;5053231;28;20129;-74
2022/08/03 09:07:30;;;;;;;5.18;3.17;;;25.50;99.90;;;;;;5053144;28;20062;-74
2022/08/03 09:09:56;;;;;;;3.90;3.45;;;25.60;99.90;;;;;;5035544;28;20096;-74
2022/08/03 09:12:22;;;;;;;4.70;4.05;;;25.70;99.90;;;;;;5052973;28;20508;-74
2022/08/03 09:14:48;;;;;;;7.13;4.03;;;25.70;99.90;;;;;;5052554;28;20021;-74
2022/08/03 09:17:14;;;;;;;7.80;3.63;;;25.70;99.90;;;;;;5052785;28;20044;-74
2022/08/03 09:19:41;;;;;;;3.58;2.92;;;25.70;99.90;;;;;;5052983;28;20036;-74
2022/08/03 09:22:15;;;;;;;7.05;3.67;;;25.80;99.90;;;;;;5051641;28;20373;-74
2022/08/03 09:25:02;;;;;;;5.47;2.88;;;25.80;99.90;;;;;;5019475;28;20443;-74
2022/08/03 09:27:28;;;;;;;3.60;2.65;;;25.80;98.40;;;;;;5018879;28;20021;-74
2022/08/03 09:29:54;;;;;;;3.92;2.30;;;25.90;97.00;;;;;;5051489;28;20024;-74
2022/08/03 09:32:21;;;;;;;4.70;2.78;;;25.90;96.70;;;;;;5052778;28;20043;-75
2022/08/03 09:34:48;;;;;;;3.25;2.50;;;25.90;94.40;;;;;;5051142;28;20036;-75
2022/08/03 09:37:15;;;;;;;3.08;2.60;;;26.00;93.40;;;;;;5034803;28;20029;-74
2022/08/03 09:39:41;;;;;;;4.32;2.85;;;26.10;92.30;;;;;;5035017;28;20032;-75
2022/08/03 09:42:09;;;;;;;8.70;3.60;;;26.20;91.90;;;;;;5050951;28;20033;-75
2022/08/03 09:44:37;;;;;;;4.60;2.63;;;26.30;92.40;;;;;;5034373;28;20040;-75
2022/08/03 09:47:03;;;;;;;6.05;2.40;;;26.40;91.20;;;;;;5035003;28;20082;-75
2022/08/03 09:49:29;;;;;;;4.88;2.25;;;26.40;92.30;;;;;;5049978;28;20028;-75
2022/08/03 09:51:55;;;;;;;4.30;2.17;;;26.50;87.40;;;;;;5043737;28;20037;-75
2022/08/03 09:54:30;;;;;;;2.70;2.50;;;26.60;83.90;;;;;;5039093;28;20032;-75
2022/08/03 09:56:56;;;;;;;3.97;2.20;;;26.70;80.20;;;;;;5049656;28;20126;-72
2022/08/03 09:59:30;;;;;;;;;;;26.90;79.00;;;;;;5051093;28;20058;-75
2022/08/03 10:01:56;;;;;;;6.65;2.55;;;27.00;75.50;;;;;;5034816;28;19920;-75
2022/08/03 10:04:23;;;;;;;5.55;2.20;;;27.20;77.50;;;;;;5033696;28;20029;-75
2022/08/03 10:07:08;;;;;;;1.88;1.77;;;27.40;73.80;;;;;;5050608;28;20021;-75
2022/08/03 10:09:37;;;;;;;2.38;1.80;;;27.60;72.10;;;;;;5051954;28;20029;-74
2022/08/03 10:12:11;;;;;;;2.90;2.28;;;27.70;70.00;;;;;;5050106;28;20025;-74
2022/08/03 10:14:40;;;;;;;3.88;1.77;;;27.80;70.80;;;;;;5033116;28;20029;-74
2022/08/03 10:17:07;;;;;;;2.30;1.80;;;27.90;69.60;;;;;;5050648;28;20155;-74
2022/08/03 10:19:33;;;;;;;3.15;1.75;;;27.90;69.80;;;;;;5034032;28;20562;-72
2022/08/03 10:22:22;;;;;;;2.25;2.05;;;27.90;69.70;;;;;;5051741;28;20041;-73
2022/08/03 10:25:06;;;;;;;1.92;1.60;;;27.90;70.20;;;;;;5033808;28;20025;-74
2022/08/03 10:27:40;;;;;;;2.20;1.42;;;28.10;64.90;;;;;;5049655;28;20029;-74
2022/08/03 10:30:10;;;;;;;1.90;1.75;;;28.10;66.20;;;;;;5050436;28;20063;-74
2022/08/03 10:32:56;;;;;;;2.75;1.67;;;28.10;66.90;;;;;;5047904;28;20180;-73
2022/08/03 10:35:22;;;;;;;5.05;1.98;;;28.20;68.50;;;;;;5044160;28;20044;-73
2022/08/03 10:38:00;;;;;;;2.40;2.10;;;28.30;68.00;;;;;;5030511;28;20033;-73
2022/08/03 10:40:28;;;;;;;4.93;2.05;;;28.40;66.60;;;;;;5030423;28;20060;-73
2022/08/03 10:42:55;;;;;;;7.07;2.40;;;28.50;69.70;;;;;;5030226;28;20365;-74
2022/08/03 10:45:24;;;;;;;3.90;2.42;;;28.50;71.40;;;;;;5033719;28;20065;-74
2022/08/03 10:47:50;;;;;;;4.53;2.17;;;28.50;72.30;;;;;;5049349;28;20423;-75
2022/08/03 10:50:16;;;;;;;10.60;2.38;;;28.60;69.70;;;;;;5041834;28;20039;-75
2022/08/03 10:52:57;;;;;;;4.35;2.00;;;28.70;67.60;;;;;;5050149;28;20044;-75
2022/08/03 10:58:43;;;;;;;2.25;2.00;;;29.00;64.30;;;;;;5049590;28;20408;-75
2022/08/03 11:01:11;;;;;;;3.97;2.28;;;29.10;64.60;;;;;;5050977;28;20420;-75
2022/08/03 11:03:58;;;;;;;3.60;2.55;;;29.30;65.20;;;;;;5049827;28;20100;-75
2022/08/03 11:06:25;;;;;;;4.22;2.35;;;29.50;65.30;;;;;;5051354;28;20032;-75
2022/08/03 11:09:16;;;;;;;6.50;2.60;;;29.60;61.60;;;;;;5051027;28;20037;-74
2022/08/03 11:11:47;;;;;;;4.03;2.42;;;29.70;64.30;;;;;;5042032;28;20044;-75
2022/08/03 11:14:17;;;;;;;4.72;2.17;;;29.80;63.20;;;;;;5032989;28;20033;-75
2022/08/03 11:17:06;;;;;;;4.25;2.10;;;30.00;59.80;;;;;;5032695;28;20025;-75
2022/08/03 11:19:49;;;;;;;3.58;2.63;;;30.10;59.50;;;;;;5040922;28;20037;-74
2022/08/03 11:22:15;;;;;;;3.00;2.13;;;30.30;59.70;;;;;;5050774;28;20037;-75
2022/08/03 11:24:42;;;;;;;3.10;1.92;;;30.40;59.30;;;;;;5049716;28;20104;-75
2022/08/03 11:27:17;;;;;;;3.28;2.10;;;30.60;60.80;;;;;;5050743;28;20024;-75
2022/08/03 11:29:59;;;;;;;2.15;1.95;;;30.70;56.60;;;;;;5039164;28;20083;-74
2022/08/03 11:32:36;;;;;;;9.07;2.20;;;30.70;58.80;;;;;;5030835;28;20105;-75
2022/08/03 11:35:23;;;;;;;3.60;1.98;;;30.80;56.40;;;;;;5031001;28;20405;-75
2022/08/03 11:38:01;;;;;;;4.07;1.90;;;30.90;56.00;;;;;;5035219;28;20036;-75
2022/08/03 11:40:43;;;;;;;1.77;1.67;;;31.10;54.90;;;;;;5046923;28;20056;-75
2022/08/03 11:43:21;;;;;;;1.90;1.70;;;31.20;52.00;;;;;;5037627;28;20037;-75
2022/08/03 11:46:00;;;;;;;2.72;1.40;;;31.20;53.30;;;;;;5056303;28;20036;-75
2022/08/03 11:48:48;;;;;;;4.07;1.63;;;31.30;49.00;;;;;;5074711;28;20028;-74
2022/08/03 11:51:30;;;;;;;2.25;1.70;;;31.40;48.40;;;;;;5076735;28;20025;-75
2022/08/03 11:54:01;;;;;;;3.47;1.60;;;31.50;52.20;;;;;;5074592;28;20081;-75
2022/08/03 11:56:28;;;;;;;3.42;1.70;;;31.50;51.50;;;;;;5075687;28;20064;-75
2022/08/03 11:58:55;;;;;;;3.20;1.98;;;31.70;51.80;;;;;;5037948;28;20032;-75
2022/08/03 12:01:22;;;;;;;3.22;1.77;;;31.90;53.80;;;;;;5018660;28;20056;-75
2022/08/03 12:03:48;;;;;;;3.13;1.63;;;32.00;53.10;;;;;;5034212;28;20747;-75
2022/08/03 12:06:15;;;;;;;2.92;1.50;;;32.20;53.30;;;;;;5035952;28;20022;-75
2022/08/03 12:08:42;;;;;;;2.20;1.70;;;32.50;45.80;;;;;;5036229;28;20021;-75
2022/08/03 12:11:13;;;;;;;1.77;1.65;;;32.60;47.30;;;;;;5034648;28;20049;-75
2022/08/03 12:13:47;;;;;;;3.78;1.92;;;32.70;48.40;;;;;;5033253;28;20060;-75
2022/08/03 12:16:23;;;;;;;1.90;1.80;;;33.00;48.90;;;;;;5037347;28;20369;-75
2022/08/03 12:19:00;;;;;;;2.03;1.88;;;33.10;49.00;;;;;;5037207;28;20032;-75
2022/08/03 12:21:27;;;;;;;1.60;1.50;;;33.30;47.70;;;;;;5054213;28;20499;-76
2022/08/03 12:24:01;;;;;;;2.80;1.70;;;33.40;51.20;;;;;;5035758;28;20036;-75
2022/08/03 12:26:28;;;;;;;2.13;1.92;;;33.70;49.30;;;;;;5053951;28;20025;-76
2022/08/03 12:28:53;;;;;;;2.17;1.65;;;33.80;51.40;;;;;;5052504;28;20032;-75
2022/08/03 12:31:19;;;;;;;;;;;33.90;47.40;;;;;;5054514;28;20099;-75
2022/08/03 12:34:06;;;;;;;3.00;1.70;;;34.00;48.00;;;;;;5053541;28;19912;-75
2022/08/03 12:36:34;;;;;;;4.32;2.00;;;34.30;49.60;;;;;;5052638;28;20032;-75
2022/08/03 12:39:05;;;;;;;4.63;1.90;;;34.50;52.20;;;;;;5051186;28;20832;-75
2022/08/03 12:41:34;;;;;;;3.35;2.00;;;34.70;43.90;;;;;;5052602;28;20033;-75
2022/08/03 12:44:02;;;;;;;2.55;1.80;;;34.80;44.40;;;;;;5052107;28;20531;-75
2022/08/03 12:46:40;;;;;;;3.40;1.85;;;35.00;46.00;;;;;;5052160;28;20047;-76
2022/08/03 12:49:14;;;;;;;1.70;1.60;;;35.20;45.80;;;;;;5052013;28;20029;-76
2022/08/03 12:51:42;;;;;;;2.80;1.92;;;35.40;45.70;;;;;;5052093;28;20037;-75
2022/08/03 12:54:19;;;;;;;2.70;1.83;;;35.60;46.70;;;;;;5052939;28;20039;-75
2022/08/03 12:57:01;;;;;;;;;;;36.00;47.30;;;;;;5037465;28;20127;-76
2022/08/03 12:59:34;;;;;;;2.72;1.77;;;36.20;46.10;;;;;;5050949;28;20328;-76
2022/08/03 13:02:00;;;;;;;2.97;2.10;;;36.40;43.70;;;;;;5051826;28;20112;-76
2022/08/03 13:04:33;;;;;;;2.10;1.90;;;36.50;42.70;;;;;;5031728;28;20444;-76
2022/08/03 13:07:04;;;;;;;2.28;1.80;;;36.60;45.90;;;;;;5031608;28;20036;-76